Main page
METAR-TAF:

METAR-TAF

Airports :

London-Luton, England

Luton Airport

latitude: 51-52N, longitude: 000-22W, elevation: 160 m

Current weather observation

The report was made 33 minutes ago, at 14:20 UTC
Wind 5 kt from the Southeast
Temperature 4°C
Humidity 93%
Pressure 1027 hPa
Visibility 10 km or more
Overcast at a height of 700 ft

METAR: EGGW 161420Z AUTO 14005KT 9999 OVC007 04/03 Q1027

Time: 14:53 (14:53 UTC)

Forecast

The report was made 15 minutes ago, at 14:38 UTC
Forecast valid from 16 at 14 UTC to 17 at 12 UTC
Wind 3 kt from the South/Southeast
Visibility: 3500 m
Overcast at a height of 700 ft
mist
Becoming
from 16 at 14 UTC to 16 at 17 UTC
Visibility 10 km or more
Scattered clouds at a height of 2500 ft
Probability 30%
from 17 at 00 UTC to 17 at 10 UTC
Visibility: 4000 m
mist

TAF: EGGW 161438Z 1614/1712 15003KT 3500 BR OVC007 BECMG 1614/1617 9999 NSW SCT025 PROB30 1700/1710 4000 BR

Weather observations and forecasts of more than 4000 airports (METAR and TAF reports).

The available stations are represented by yellow and red dots on the map.

Hover mouse over dot to see the name of the station.

Then click to see weather observations and forecasts.

To change the map : click on the green buttons with a black cross to zoom in, on the green button with a dash to zoom out, or on the green arrows for adjacent maps.


METAR-TAF: